sensor_id;sensor_type;location;lat;lon;timestamp;P1;durP1;ratioP1;P2;durP2;ratioP2
2858;SDS011;1437;53.250;10.406;2023-04-24T00:00:21;4.53;;;3.83;;
2858;SDS011;1437;53.250;10.406;2023-04-24T00:02:50;4.83;;;3.50;;
2858;SDS011;1437;53.250;10.406;2023-04-24T00:05:23;4.53;;;3.23;;
2858;SDS011;1437;53.250;10.406;2023-04-24T00:07:51;5.67;;;3.70;;
2858;SDS011;1437;53.250;10.406;2023-04-24T00:10:23;4.07;;;3.67;;
2858;SDS011;1437;53.250;10.406;2023-04-24T00:12:52;5.67;;;4.30;;
2858;SDS011;1437;53.250;10.406;2023-04-24T00:15:20;6.83;;;3.80;;
2858;SDS011;1437;53.250;10.406;2023-04-24T00:17:49;4.90;;;3.43;;
2858;SDS011;1437;53.250;10.406;2023-04-24T00:20:19;6.03;;;2.97;;
2858;SDS011;1437;53.250;10.406;2023-04-24T00:22:48;5.10;;;3.30;;
2858;SDS011;1437;53.250;10.406;2023-04-24T00:25:16;6.13;;;3.70;;
2858;SDS011;1437;53.250;10.406;2023-04-24T00:27:46;4.93;;;3.37;;
2858;SDS011;1437;53.250;10.406;2023-04-24T00:30:14;7.00;;;3.67;;
2858;SDS011;1437;53.250;10.406;2023-04-24T00:32:43;3.80;;;3.13;;
2858;SDS011;1437;53.250;10.406;2023-04-24T00:35:13;4.97;;;3.63;;
2858;SDS011;1437;53.250;10.406;2023-04-24T00:37:42;4.77;;;3.60;;
2858;SDS011;1437;53.250;10.406;2023-04-24T00:40:10;4.47;;;3.20;;
2858;SDS011;1437;53.250;10.406;2023-04-24T00:42:40;3.80;;;3.40;;
2858;SDS011;1437;53.250;10.406;2023-04-24T00:45:10;4.00;;;3.10;;
2858;SDS011;1437;53.250;10.406;2023-04-24T00:47:40;5.30;;;3.03;;
2858;SDS011;1437;53.250;10.406;2023-04-24T00:50:12;3.90;;;2.80;;
2858;SDS011;1437;53.250;10.406;2023-04-24T00:52:45;3.60;;;2.90;;
2858;SDS011;1437;53.250;10.406;2023-04-24T00:55:14;4.30;;;3.13;;
2858;SDS011;1437;53.250;10.406;2023-04-24T00:57:42;3.70;;;3.00;;
2858;SDS011;1437;53.250;10.406;2023-04-24T01:00:16;5.47;;;3.67;;
2858;SDS011;1437;53.250;10.406;2023-04-24T01:02:44;4.27;;;3.70;;
2858;SDS011;1437;53.250;10.406;2023-04-24T01:05:15;4.93;;;3.50;;
2858;SDS011;1437;53.250;10.406;2023-04-24T01:07:44;6.23;;;3.80;;
2858;SDS011;1437;53.250;10.406;2023-04-24T01:10:14;4.93;;;3.00;;
2858;SDS011;1437;53.250;10.406;2023-04-24T01:12:55;3.90;;;2.87;;
2858;SDS011;1437;53.250;10.406;2023-04-24T01:15:37;4.40;;;3.20;;
2858;SDS011;1437;53.250;10.406;2023-04-24T01:18:18;3.63;;;3.10;;
2858;SDS011;1437;53.250;10.406;2023-04-24T01:20:46;4.20;;;3.07;;
2858;SDS011;1437;53.250;10.406;2023-04-24T01:23:26;4.20;;;3.10;;
2858;SDS011;1437;53.250;10.406;2023-04-24T01:26:01;3.83;;;3.27;;
2858;SDS011;1437;53.250;10.406;2023-04-24T01:28:35;3.70;;;3.00;;
2858;SDS011;1437;53.250;10.406;2023-04-24T01:31:09;3.40;;;2.83;;
2858;SDS011;1437;53.250;10.406;2023-04-24T01:33:38;3.60;;;2.70;;
2858;SDS011;1437;53.250;10.406;2023-04-24T01:36:06;4.20;;;3.10;;
2858;SDS011;1437;53.250;10.406;2023-04-24T01:38:40;4.20;;;2.87;;
2858;SDS011;1437;53.250;10.406;2023-04-24T01:41:08;4.70;;;3.00;;
2858;SDS011;1437;53.250;10.406;2023-04-24T01:43:36;3.40;;;2.63;;
2858;SDS011;1437;53.250;10.406;2023-04-24T01:46:05;3.10;;;2.40;;
2858;SDS011;1437;53.250;10.406;2023-04-24T01:48:34;3.23;;;2.50;;
2858;SDS011;1437;53.250;10.406;2023-04-24T01:51:03;2.83;;;2.10;;
2858;SDS011;1437;53.250;10.406;2023-04-24T01:53:32;2.93;;;2.13;;
2858;SDS011;1437;53.250;10.406;2023-04-24T01:56:02;4.10;;;2.40;;
2858;SDS011;1437;53.250;10.406;2023-04-24T01:58:31;3.30;;;2.10;;
2858;SDS011;1437;53.250;10.406;2023-04-24T02:01:06;3.80;;;2.60;;
2858;SDS011;1437;53.250;10.406;2023-04-24T02:03:35;3.30;;;1.70;;
2858;SDS011;1437;53.250;10.406;2023-04-24T02:06:07;3.20;;;1.33;;
2858;SDS011;1437;53.250;10.406;2023-04-24T02:08:41;2.20;;;1.50;;
2858;SDS011;1437;53.250;10.406;2023-04-24T02:11:20;2.40;;;1.53;;
2858;SDS011;1437;53.250;10.406;2023-04-24T02:13:51;4.63;;;1.40;;
2858;SDS011;1437;53.250;10.406;2023-04-24T02:16:19;4.00;;;1.50;;
2858;SDS011;1437;53.250;10.406;2023-04-24T02:18:48;2.23;;;1.23;;
2858;SDS011;1437;53.250;10.406;2023-04-24T02:21:16;7.80;;;1.50;;
2858;SDS011;1437;53.250;10.406;2023-04-24T02:23:45;2.77;;;1.30;;
2858;SDS011;1437;53.250;10.406;2023-04-24T02:26:14;2.10;;;1.20;;
2858;SDS011;1437;53.250;10.406;2023-04-24T02:28:44;2.93;;;1.40;;
2858;SDS011;1437;53.250;10.406;2023-04-24T02:31:13;1.90;;;1.13;;
2858;SDS011;1437;53.250;10.406;2023-04-24T02:33:41;1.97;;;1.13;;
2858;SDS011;1437;53.250;10.406;2023-04-24T02:36:10;2.57;;;1.80;;
2858;SDS011;1437;53.250;10.406;2023-04-24T02:38:39;3.50;;;1.57;;
2858;SDS011;1437;53.250;10.406;2023-04-24T02:41:07;2.30;;;1.10;;
2858;SDS011;1437;53.250;10.406;2023-04-24T02:43:35;2.50;;;1.20;;
2858;SDS011;1437;53.250;10.406;2023-04-24T02:46:06;5.77;;;1.27;;
2858;SDS011;1437;53.250;10.406;2023-04-24T02:48:35;2.37;;;1.30;;
2858;SDS011;1437;53.250;10.406;2023-04-24T02:51:06;1.90;;;0.90;;
2858;SDS011;1437;53.250;10.406;2023-04-24T02:53:35;2.60;;;1.17;;
2858;SDS011;1437;53.250;10.406;2023-04-24T02:56:03;2.00;;;1.30;;
2858;SDS011;1437;53.250;10.406;2023-04-24T02:58:31;2.17;;;1.27;;
2858;SDS011;1437;53.250;10.406;2023-04-24T03:01:01;3.07;;;1.50;;
2858;SDS011;1437;53.250;10.406;2023-04-24T03:03:30;1.80;;;1.00;;
2858;SDS011;1437;53.250;10.406;2023-04-24T03:05:59;2.73;;;1.00;;
2858;SDS011;1437;53.250;10.406;2023-04-24T03:08:27;3.17;;;1.50;;
2858;SDS011;1437;53.250;10.406;2023-04-24T03:10:55;2.13;;;1.30;;
2858;SDS011;1437;53.250;10.406;2023-04-24T03:13:24;2.33;;;1.43;;
2858;SDS011;1437;53.250;10.406;2023-04-24T03:15:52;1.80;;;1.00;;
2858;SDS011;1437;53.250;10.406;2023-04-24T03:18:21;2.23;;;1.20;;
2858;SDS011;1437;53.250;10.406;2023-04-24T03:20:54;2.10;;;1.20;;
2858;SDS011;1437;53.250;10.406;2023-04-24T03:23:23;2.13;;;1.07;;
2858;SDS011;1437;53.250;10.406;2023-04-24T03:25:51;2.20;;;1.30;;
2858;SDS011;1437;53.250;10.406;2023-04-24T03:28:20;1.67;;;1.00;;
2858;SDS011;1437;53.250;10.406;2023-04-24T03:30:49;1.90;;;1.30;;
2858;SDS011;1437;53.250;10.406;2023-04-24T03:33:17;2.20;;;1.03;;
2858;SDS011;1437;53.250;10.406;2023-04-24T03:35:46;2.40;;;1.10;;
2858;SDS011;1437;53.250;10.406;2023-04-24T03:38:17;2.37;;;1.30;;
2858;SDS011;1437;53.250;10.406;2023-04-24T03:40:45;2.37;;;1.30;;
2858;SDS011;1437;53.250;10.406;2023-04-24T03:43:13;1.93;;;1.03;;
2858;SDS011;1437;53.250;10.406;2023-04-24T03:45:42;3.30;;;1.00;;
2858;SDS011;1437;53.250;10.406;2023-04-24T03:50:55;1.90;;;0.90;;
2858;SDS011;1437;53.250;10.406;2023-04-24T03:53:26;2.83;;;1.10;;
2858;SDS011;1437;53.250;10.406;2023-04-24T03:55:55;2.43;;;1.00;;
2858;SDS011;1437;53.250;10.406;2023-04-24T03:58:24;2.47;;;1.20;;
2858;SDS011;1437;53.250;10.406;2023-04-24T04:00:53;1.83;;;0.90;;
2858;SDS011;1437;53.250;10.406;2023-04-24T04:03:22;2.40;;;1.10;;
2858;SDS011;1437;53.250;10.406;2023-04-24T04:05:50;2.63;;;1.00;;
2858;SDS011;1437;53.250;10.406;2023-04-24T04:08:19;2.07;;;0.90;;
2858;SDS011;1437;53.250;10.406;2023-04-24T04:10:49;1.70;;;1.00;;
2858;SDS011;1437;53.250;10.406;2023-04-24T04:13:18;1.63;;;0.80;;
2858;SDS011;1437;53.250;10.406;2023-04-24T04:15:46;2.00;;;0.87;;
2858;SDS011;1437;53.250;10.406;2023-04-24T04:18:24;2.33;;;1.07;;
2858;SDS011;1437;53.250;10.406;2023-04-24T04:20:54;1.73;;;1.00;;
2858;SDS011;1437;53.250;10.406;2023-04-24T04:23:33;2.00;;;1.30;;
2858;SDS011;1437;53.250;10.406;2023-04-24T04:26:03;1.70;;;0.90;;
2858;SDS011;1437;53.250;10.406;2023-04-24T04:28:32;1.80;;;0.90;;
2858;SDS011;1437;53.250;10.406;2023-04-24T04:31:00;2.90;;;1.00;;
2858;SDS011;1437;53.250;10.406;2023-04-24T04:33:29;1.87;;;0.67;;
2858;SDS011;1437;53.250;10.406;2023-04-24T04:35:58;2.10;;;1.17;;
2858;SDS011;1437;53.250;10.406;2023-04-24T04:38:28;2.13;;;1.10;;
2858;SDS011;1437;53.250;10.406;2023-04-24T04:41:01;1.90;;;0.90;;
2858;SDS011;1437;53.250;10.406;2023-04-24T04:43:31;2.47;;;1.10;;
2858;SDS011;1437;53.250;10.406;2023-04-24T04:46:00;2.67;;;1.00;;
2858;SDS011;1437;53.250;10.406;2023-04-24T04:48:28;3.50;;;0.90;;
2858;SDS011;1437;53.250;10.406;2023-04-24T04:51:05;1.73;;;0.90;;
2858;SDS011;1437;53.250;10.406;2023-04-24T04:53:34;2.20;;;0.90;;
2858;SDS011;1437;53.250;10.406;2023-04-24T04:56:06;4.00;;;1.10;;
2858;SDS011;1437;53.250;10.406;2023-04-24T04:58:36;4.40;;;1.20;;
2858;SDS011;1437;53.250;10.406;2023-04-24T05:01:06;1.87;;;1.00;;
2858;SDS011;1437;53.250;10.406;2023-04-24T05:03:38;1.70;;;1.00;;
2858;SDS011;1437;53.250;10.406;2023-04-24T05:06:07;3.60;;;1.27;;
2858;SDS011;1437;53.250;10.406;2023-04-24T05:08:35;3.40;;;1.13;;
2858;SDS011;1437;53.250;10.406;2023-04-24T05:11:08;3.93;;;1.00;;
2858;SDS011;1437;53.250;10.406;2023-04-24T05:13:41;5.70;;;1.17;;
2858;SDS011;1437;53.250;10.406;2023-04-24T05:16:18;4.23;;;1.20;;
2858;SDS011;1437;53.250;10.406;2023-04-24T05:18:47;1.50;;;0.73;;
2858;SDS011;1437;53.250;10.406;2023-04-24T05:21:17;5.03;;;1.20;;
2858;SDS011;1437;53.250;10.406;2023-04-24T05:23:50;1.93;;;0.87;;
2858;SDS011;1437;53.250;10.406;2023-04-24T05:26:19;1.80;;;1.00;;
2858;SDS011;1437;53.250;10.406;2023-04-24T05:28:50;3.00;;;1.20;;
2858;SDS011;1437;53.250;10.406;2023-04-24T05:31:19;3.30;;;1.03;;
2858;SDS011;1437;53.250;10.406;2023-04-24T05:33:48;2.47;;;1.33;;
2858;SDS011;1437;53.250;10.406;2023-04-24T05:36:18;1.60;;;0.80;;
2858;SDS011;1437;53.250;10.406;2023-04-24T05:38:50;2.13;;;1.07;;
2858;SDS011;1437;53.250;10.406;2023-04-24T05:41:20;1.80;;;0.87;;
2858;SDS011;1437;53.250;10.406;2023-04-24T05:43:54;2.23;;;1.07;;
2858;SDS011;1437;53.250;10.406;2023-04-24T05:46:24;1.83;;;1.13;;
2858;SDS011;1437;53.250;10.406;2023-04-24T05:48:52;2.03;;;1.03;;
2858;SDS011;1437;53.250;10.406;2023-04-24T05:51:23;1.90;;;0.97;;
2858;SDS011;1437;53.250;10.406;2023-04-24T05:53:57;2.23;;;1.10;;
2858;SDS011;1437;53.250;10.406;2023-04-24T05:56:31;2.33;;;1.30;;
2858;SDS011;1437;53.250;10.406;2023-04-24T05:59:02;1.90;;;1.00;;
2858;SDS011;1437;53.250;10.406;2023-04-24T06:01:31;2.17;;;1.33;;
2858;SDS011;1437;53.250;10.406;2023-04-24T06:04:05;2.20;;;0.90;;
2858;SDS011;1437;53.250;10.406;2023-04-24T06:06:50;2.67;;;1.20;;
2858;SDS011;1437;53.250;10.406;2023-04-24T06:09:28;2.37;;;1.00;;
2858;SDS011;1437;53.250;10.406;2023-04-24T06:12:15;1.90;;;0.90;;
2858;SDS011;1437;53.250;10.406;2023-04-24T06:14:51;2.57;;;0.93;;
2858;SDS011;1437;53.250;10.406;2023-04-24T06:17:31;2.60;;;1.07;;
2858;SDS011;1437;53.250;10.406;2023-04-24T06:20:12;1.80;;;0.87;;
2858;SDS011;1437;53.250;10.406;2023-04-24T06:22:49;3.87;;;1.00;;
2858;SDS011;1437;53.250;10.406;2023-04-24T06:25:33;2.63;;;1.00;;
2858;SDS011;1437;53.250;10.406;2023-04-24T06:28:35;1.90;;;1.00;;
2858;SDS011;1437;53.250;10.406;2023-04-24T06:34:42;1.90;;;1.00;;
2858;SDS011;1437;53.250;10.406;2023-04-24T06:37:14;1.90;;;1.00;;
2858;SDS011;1437;53.250;10.406;2023-04-24T06:39:45;2.07;;;0.90;;
2858;SDS011;1437;53.250;10.406;2023-04-24T06:42:14;2.80;;;0.93;;
2858;SDS011;1437;53.250;10.406;2023-04-24T06:44:45;1.90;;;0.83;;
2858;SDS011;1437;53.250;10.406;2023-04-24T06:47:24;1.97;;;0.90;;
2858;SDS011;1437;53.250;10.406;2023-04-24T06:52:49;3.07;;;1.00;;
2858;SDS011;1437;53.250;10.406;2023-04-24T06:55:18;2.60;;;1.20;;
2858;SDS011;1437;53.250;10.406;2023-04-24T06:57:49;2.73;;;0.80;;
2858;SDS011;1437;53.250;10.406;2023-04-24T07:00:26;3.70;;;0.90;;
2858;SDS011;1437;53.250;10.406;2023-04-24T07:02:57;1.70;;;0.90;;
2858;SDS011;1437;53.250;10.406;2023-04-24T07:05:31;3.40;;;1.60;;
2858;SDS011;1437;53.250;10.406;2023-04-24T07:08:16;3.03;;;1.00;;
2858;SDS011;1437;53.250;10.406;2023-04-24T07:10:48;1.77;;;0.80;;
2858;SDS011;1437;53.250;10.406;2023-04-24T07:13:26;1.90;;;1.07;;
2858;SDS011;1437;53.250;10.406;2023-04-24T07:16:12;2.47;;;1.10;;
2858;SDS011;1437;53.250;10.406;2023-04-24T07:19:07;1.90;;;0.90;;
2858;SDS011;1437;53.250;10.406;2023-04-24T07:25:17;1.60;;;0.80;;
2858;SDS011;1437;53.250;10.406;2023-04-24T07:27:45;2.13;;;0.80;;
2858;SDS011;1437;53.250;10.406;2023-04-24T07:30:14;3.67;;;1.10;;
2858;SDS011;1437;53.250;10.406;2023-04-24T07:32:43;1.80;;;0.80;;
2858;SDS011;1437;53.250;10.406;2023-04-24T07:35:17;2.67;;;0.70;;
2858;SDS011;1437;53.250;10.406;2023-04-24T07:37:48;1.70;;;0.77;;
2858;SDS011;1437;53.250;10.406;2023-04-24T07:43:47;1.83;;;0.90;;
2858;SDS011;1437;53.250;10.406;2023-04-24T07:46:23;1.97;;;0.80;;
2858;SDS011;1437;53.250;10.406;2023-04-24T07:48:55;1.70;;;0.77;;
2858;SDS011;1437;53.250;10.406;2023-04-24T07:51:34;2.40;;;1.00;;
2858;SDS011;1437;53.250;10.406;2023-04-24T07:54:13;1.80;;;0.80;;
2858;SDS011;1437;53.250;10.406;2023-04-24T07:56:57;2.00;;;1.00;;
2858;SDS011;1437;53.250;10.406;2023-04-24T07:59:46;2.00;;;1.00;;
2858;SDS011;1437;53.250;10.406;2023-04-24T08:05:23;2.40;;;0.80;;
2858;SDS011;1437;53.250;10.406;2023-04-24T08:08:01;2.57;;;0.80;;
2858;SDS011;1437;53.250;10.406;2023-04-24T08:10:34;2.57;;;1.30;;
2858;SDS011;1437;53.250;10.406;2023-04-24T08:13:18;2.43;;;1.20;;
2858;SDS011;1437;53.250;10.406;2023-04-24T08:19:36;2.23;;;1.13;;
2858;SDS011;1437;53.250;10.406;2023-04-24T08:22:28;1.70;;;0.80;;
2858;SDS011;1437;53.250;10.406;2023-04-24T08:25:06;2.00;;;1.23;;
2858;SDS011;1437;53.250;10.406;2023-04-24T08:27:54;2.43;;;1.30;;
2858;SDS011;1437;53.250;10.406;2023-04-24T08:30:23;2.20;;;1.07;;
2858;SDS011;1437;53.250;10.406;2023-04-24T08:32:55;3.77;;;1.93;;
2858;SDS011;1437;53.250;10.406;2023-04-24T08:35:33;1.80;;;1.00;;
2858;SDS011;1437;53.250;10.406;2023-04-24T08:38:22;2.70;;;1.60;;
2858;SDS011;1437;53.250;10.406;2023-04-24T08:44:17;2.97;;;1.20;;
2858;SDS011;1437;53.250;10.406;2023-04-24T08:47:17;2.83;;;1.63;;
2858;SDS011;1437;53.250;10.406;2023-04-24T08:50:18;2.07;;;1.30;;
2858;SDS011;1437;53.250;10.406;2023-04-24T08:53:00;4.50;;;1.47;;
2858;SDS011;1437;53.250;10.406;2023-04-24T08:55:32;3.57;;;1.67;;
2858;SDS011;1437;53.250;10.406;2023-04-24T08:58:11;2.73;;;1.40;;
2858;SDS011;1437;53.250;10.406;2023-04-24T09:00:53;3.03;;;1.70;;
2858;SDS011;1437;53.250;10.406;2023-04-24T09:03:38;3.10;;;1.43;;
2858;SDS011;1437;53.250;10.406;2023-04-24T09:06:18;3.10;;;2.00;;
2858;SDS011;1437;53.250;10.406;2023-04-24T09:09:12;3.33;;;2.13;;
2858;SDS011;1437;53.250;10.406;2023-04-24T09:11:52;3.20;;;2.60;;
2858;SDS011;1437;53.250;10.406;2023-04-24T09:14:38;3.33;;;2.10;;
2858;SDS011;1437;53.250;10.406;2023-04-24T09:17:10;6.20;;;3.90;;
2858;SDS011;1437;53.250;10.406;2023-04-24T09:19:42;4.83;;;3.60;;
2858;SDS011;1437;53.250;10.406;2023-04-24T09:22:13;5.43;;;3.20;;
2858;SDS011;1437;53.250;10.406;2023-04-24T09:24:47;4.13;;;3.60;;
2858;SDS011;1437;53.250;10.406;2023-04-24T09:27:16;5.50;;;3.93;;
2858;SDS011;1437;53.250;10.406;2023-04-24T09:29:53;6.80;;;4.20;;
2858;SDS011;1437;53.250;10.406;2023-04-24T09:32:22;10.43;;;3.97;;
2858;SDS011;1437;53.250;10.406;2023-04-24T09:37:42;4.70;;;3.87;;
2858;SDS011;1437;53.250;10.406;2023-04-24T09:40:21;4.60;;;3.47;;
2858;SDS011;1437;53.250;10.406;2023-04-24T09:43:01;5.70;;;4.37;;
2858;SDS011;1437;53.250;10.406;2023-04-24T09:45:58;5.90;;;4.00;;
2858;SDS011;1437;53.250;10.406;2023-04-24T09:48:31;5.87;;;4.27;;
2858;SDS011;1437;53.250;10.406;2023-04-24T09:51:04;4.57;;;3.20;;
2858;SDS011;1437;53.250;10.406;2023-04-24T09:53:37;5.27;;;3.77;;
2858;SDS011;1437;53.250;10.406;2023-04-24T09:56:07;5.70;;;3.93;;
2858;SDS011;1437;53.250;10.406;2023-04-24T09:58:44;4.40;;;3.43;;
2858;SDS011;1437;53.250;10.406;2023-04-24T10:01:27;5.90;;;4.03;;
2858;SDS011;1437;53.250;10.406;2023-04-24T10:04:19;5.80;;;4.00;;
2858;SDS011;1437;53.250;10.406;2023-04-24T10:07:02;6.00;;;4.53;;
2858;SDS011;1437;53.250;10.406;2023-04-24T10:09:34;6.27;;;3.73;;
2858;SDS011;1437;53.250;10.406;2023-04-24T10:12:08;5.13;;;4.30;;
2858;SDS011;1437;53.250;10.406;2023-04-24T10:14:39;4.70;;;3.80;;
2858;SDS011;1437;53.250;10.406;2023-04-24T10:17:21;6.90;;;3.97;;
2858;SDS011;1437;53.250;10.406;2023-04-24T10:20:26;4.60;;;3.77;;
2858;SDS011;1437;53.250;10.406;2023-04-24T10:23:18;5.20;;;3.70;;
2858;SDS011;1437;53.250;10.406;2023-04-24T10:29:10;5.77;;;3.97;;
2858;SDS011;1437;53.250;10.406;2023-04-24T10:31:43;5.70;;;3.83;;
2858;SDS011;1437;53.250;10.406;2023-04-24T10:34:17;6.10;;;4.80;;
2858;SDS011;1437;53.250;10.406;2023-04-24T10:36:50;7.23;;;4.70;;
2858;SDS011;1437;53.250;10.406;2023-04-24T10:39:36;6.30;;;4.17;;
2858;SDS011;1437;53.250;10.406;2023-04-24T10:42:14;6.63;;;4.40;;
2858;SDS011;1437;53.250;10.406;2023-04-24T10:47:53;7.97;;;4.27;;
2858;SDS011;1437;53.250;10.406;2023-04-24T10:50:28;6.23;;;4.50;;
2858;SDS011;1437;53.250;10.406;2023-04-24T10:53:07;5.73;;;3.80;;
2858;SDS011;1437;53.250;10.406;2023-04-24T10:55:43;7.60;;;4.37;;
2858;SDS011;1437;53.250;10.406;2023-04-24T10:58:35;5.37;;;4.43;;
2858;SDS011;1437;53.250;10.406;2023-04-24T11:01:05;7.07;;;4.30;;
2858;SDS011;1437;53.250;10.406;2023-04-24T11:06:30;5.47;;;4.57;;
2858;SDS011;1437;53.250;10.406;2023-04-24T11:09:16;4.70;;;3.87;;
2858;SDS011;1437;53.250;10.406;2023-04-24T11:11:49;5.10;;;3.57;;
2858;SDS011;1437;53.250;10.406;2023-04-24T11:14:27;5.03;;;3.57;;
2858;SDS011;1437;53.250;10.406;2023-04-24T11:20:22;4.60;;;2.40;;
2858;SDS011;1437;53.250;10.406;2023-04-24T11:23:05;4.73;;;2.87;;
2858;SDS011;1437;53.250;10.406;2023-04-24T11:25:37;4.23;;;3.40;;
2858;SDS011;1437;53.250;10.406;2023-04-24T11:28:14;5.60;;;3.67;;
2858;SDS011;1437;53.250;10.406;2023-04-24T11:34:16;3.30;;;2.47;;
2858;SDS011;1437;53.250;10.406;2023-04-24T11:36:50;5.80;;;2.80;;
2858;SDS011;1437;53.250;10.406;2023-04-24T11:39:25;3.53;;;2.33;;
2858;SDS011;1437;53.250;10.406;2023-04-24T11:42:07;5.20;;;2.47;;
2858;SDS011;1437;53.250;10.406;2023-04-24T11:44:48;4.83;;;3.00;;
2858;SDS011;1437;53.250;10.406;2023-04-24T11:47:28;6.97;;;2.00;;
2858;SDS011;1437;53.250;10.406;2023-04-24T11:50:00;4.10;;;2.90;;
2858;SDS011;1437;53.250;10.406;2023-04-24T11:52:38;4.20;;;2.80;;
2858;SDS011;1437;53.250;10.406;2023-04-24T11:55:12;4.50;;;2.73;;
2858;SDS011;1437;53.250;10.406;2023-04-24T11:57:56;4.87;;;2.70;;
2858;SDS011;1437;53.250;10.406;2023-04-24T12:00:30;5.43;;;3.50;;
2858;SDS011;1437;53.250;10.406;2023-04-24T12:03:15;6.90;;;3.40;;
2858;SDS011;1437;53.250;10.406;2023-04-24T12:08:54;8.90;;;3.77;;
2858;SDS011;1437;53.250;10.406;2023-04-24T12:11:28;7.30;;;3.20;;
2858;SDS011;1437;53.250;10.406;2023-04-24T12:13:57;7.97;;;2.83;;
2858;SDS011;1437;53.250;10.406;2023-04-24T12:16:27;3.93;;;2.87;;
2858;SDS011;1437;53.250;10.406;2023-04-24T12:19:02;11.37;;;3.50;;
2858;SDS011;1437;53.250;10.406;2023-04-24T12:21:32;3.60;;;2.60;;
2858;SDS011;1437;53.250;10.406;2023-04-24T12:24:12;4.90;;;3.20;;
2858;SDS011;1437;53.250;10.406;2023-04-24T12:26:43;4.50;;;2.80;;
2858;SDS011;1437;53.250;10.406;2023-04-24T12:29:50;3.93;;;2.57;;
2858;SDS011;1437;53.250;10.406;2023-04-24T12:32:40;3.00;;;2.00;;
2858;SDS011;1437;53.250;10.406;2023-04-24T12:35:12;3.37;;;2.50;;
2858;SDS011;1437;53.250;10.406;2023-04-24T12:37:43;4.47;;;3.30;;
2858;SDS011;1437;53.250;10.406;2023-04-24T12:40:15;5.30;;;2.43;;
2858;SDS011;1437;53.250;10.406;2023-04-24T12:42:44;2.87;;;1.90;;
2858;SDS011;1437;53.250;10.406;2023-04-24T12:45:13;3.53;;;2.50;;
2858;SDS011;1437;53.250;10.406;2023-04-24T12:47:45;3.67;;;2.40;;
2858;SDS011;1437;53.250;10.406;2023-04-24T12:50:14;4.53;;;1.97;;
2858;SDS011;1437;53.250;10.406;2023-04-24T12:52:44;2.80;;;1.90;;
2858;SDS011;1437;53.250;10.406;2023-04-24T12:55:24;4.03;;;1.90;;
2858;SDS011;1437;53.250;10.406;2023-04-24T12:58:03;2.77;;;1.83;;
2858;SDS011;1437;53.250;10.406;2023-04-24T13:00:40;2.90;;;2.10;;
2858;SDS011;1437;53.250;10.406;2023-04-24T13:03:27;5.23;;;2.80;;
2858;SDS011;1437;53.250;10.406;2023-04-24T13:06:16;4.00;;;3.27;;
2858;SDS011;1437;53.250;10.406;2023-04-24T13:09:02;4.80;;;2.10;;
2858;SDS011;1437;53.250;10.406;2023-04-24T13:11:34;3.40;;;2.00;;
2858;SDS011;1437;53.250;10.406;2023-04-24T13:14:09;2.50;;;1.50;;
2858;SDS011;1437;53.250;10.406;2023-04-24T13:16:45;3.90;;;2.00;;
2858;SDS011;1437;53.250;10.406;2023-04-24T13:19:20;3.07;;;1.67;;
2858;SDS011;1437;53.250;10.406;2023-04-24T13:21:50;2.40;;;1.70;;
2858;SDS011;1437;53.250;10.406;2023-04-24T13:24:19;2.80;;;1.83;;
2858;SDS011;1437;53.250;10.406;2023-04-24T13:26:53;4.30;;;3.13;;
2858;SDS011;1437;53.250;10.406;2023-04-24T13:29:25;2.53;;;1.40;;
2858;SDS011;1437;53.250;10.406;2023-04-24T13:31:54;4.13;;;1.77;;
2858;SDS011;1437;53.250;10.406;2023-04-24T13:34:28;3.50;;;2.10;;
2858;SDS011;1437;53.250;10.406;2023-04-24T13:37:00;2.57;;;1.40;;
2858;SDS011;1437;53.250;10.406;2023-04-24T13:39:30;3.17;;;1.97;;
2858;SDS011;1437;53.250;10.406;2023-04-24T13:42:14;2.67;;;1.77;;
2858;SDS011;1437;53.250;10.406;2023-04-24T13:44:48;2.90;;;1.60;;
2858;SDS011;1437;53.250;10.406;2023-04-24T13:47:20;7.30;;;2.00;;
2858;SDS011;1437;53.250;10.406;2023-04-24T13:49:50;3.73;;;1.13;;
2858;SDS011;1437;53.250;10.406;2023-04-24T13:52:46;2.10;;;1.30;;
2858;SDS011;1437;53.250;10.406;2023-04-24T13:55:18;2.20;;;1.10;;
2858;SDS011;1437;53.250;10.406;2023-04-24T13:58:04;3.53;;;2.20;;
2858;SDS011;1437;53.250;10.406;2023-04-24T14:03:55;3.40;;;2.03;;
2858;SDS011;1437;53.250;10.406;2023-04-24T14:06:59;4.50;;;1.60;;
2858;SDS011;1437;53.250;10.406;2023-04-24T14:09:37;2.60;;;1.30;;
2858;SDS011;1437;53.250;10.406;2023-04-24T14:12:07;3.70;;;1.50;;
2858;SDS011;1437;53.250;10.406;2023-04-24T14:14:45;2.30;;;1.40;;
2858;SDS011;1437;53.250;10.406;2023-04-24T14:17:18;2.70;;;1.60;;
2858;SDS011;1437;53.250;10.406;2023-04-24T14:19:47;2.20;;;1.37;;
2858;SDS011;1437;53.250;10.406;2023-04-24T14:22:17;2.70;;;1.40;;
2858;SDS011;1437;53.250;10.406;2023-04-24T14:24:56;2.13;;;1.47;;
2858;SDS011;1437;53.250;10.406;2023-04-24T14:28:01;2.83;;;1.50;;
2858;SDS011;1437;53.250;10.406;2023-04-24T14:36:36;5.40;;;2.03;;
2858;SDS011;1437;53.250;10.406;2023-04-24T14:39:15;2.80;;;1.80;;
2858;SDS011;1437;53.250;10.406;2023-04-24T14:41:51;4.20;;;2.50;;
2858;SDS011;1437;53.250;10.406;2023-04-24T14:44:25;1.90;;;1.17;;
2858;SDS011;1437;53.250;10.406;2023-04-24T14:46:59;2.53;;;1.50;;
2858;SDS011;1437;53.250;10.406;2023-04-24T14:49:35;2.80;;;1.83;;
2858;SDS011;1437;53.250;10.406;2023-04-24T14:52:15;4.80;;;1.47;;
2858;SDS011;1437;53.250;10.406;2023-04-24T14:54:57;3.70;;;1.07;;
2858;SDS011;1437;53.250;10.406;2023-04-24T14:57:39;4.67;;;1.10;;
2858;SDS011;1437;53.250;10.406;2023-04-24T15:00:14;2.03;;;0.70;;
2858;SDS011;1437;53.250;10.406;2023-04-24T15:03:03;1.80;;;0.70;;
2858;SDS011;1437;53.250;10.406;2023-04-24T15:06:03;2.47;;;1.00;;
2858;SDS011;1437;53.250;10.406;2023-04-24T15:08:39;7.53;;;3.23;;
2858;SDS011;1437;53.250;10.406;2023-04-24T15:11:19;1.50;;;0.60;;
2858;SDS011;1437;53.250;10.406;2023-04-24T15:13:56;2.30;;;0.87;;
2858;SDS011;1437;53.250;10.406;2023-04-24T15:16:26;4.10;;;1.50;;
2858;SDS011;1437;53.250;10.406;2023-04-24T15:19:00;2.50;;;1.10;;
2858;SDS011;1437;53.250;10.406;2023-04-24T15:21:43;1.60;;;0.70;;
2858;SDS011;1437;53.250;10.406;2023-04-24T15:24:22;3.00;;;1.00;;
2858;SDS011;1437;53.250;10.406;2023-04-24T15:26:55;1.97;;;1.07;;
2858;SDS011;1437;53.250;10.406;2023-04-24T15:29:28;2.17;;;1.20;;
2858;SDS011;1437;53.250;10.406;2023-04-24T15:31:57;2.57;;;1.20;;
2858;SDS011;1437;53.250;10.406;2023-04-24T15:34:34;3.27;;;1.10;;
2858;SDS011;1437;53.250;10.406;2023-04-24T15:37:02;1.60;;;0.80;;
2858;SDS011;1437;53.250;10.406;2023-04-24T15:39:45;2.50;;;1.40;;
2858;SDS011;1437;53.250;10.406;2023-04-24T15:42:15;1.60;;;1.00;;
2858;SDS011;1437;53.250;10.406;2023-04-24T15:44:58;3.20;;;1.30;;
2858;SDS011;1437;53.250;10.406;2023-04-24T15:47:30;2.27;;;1.20;;
2858;SDS011;1437;53.250;10.406;2023-04-24T15:50:04;2.80;;;1.47;;
2858;SDS011;1437;53.250;10.406;2023-04-24T15:52:36;4.53;;;1.90;;
2858;SDS011;1437;53.250;10.406;2023-04-24T15:55:09;2.27;;;1.60;;
2858;SDS011;1437;53.250;10.406;2023-04-24T15:57:45;3.20;;;1.80;;
2858;SDS011;1437;53.250;10.406;2023-04-24T16:00:15;2.53;;;1.20;;
2858;SDS011;1437;53.250;10.406;2023-04-24T16:02:46;2.10;;;1.23;;
2858;SDS011;1437;53.250;10.406;2023-04-24T16:05:23;2.97;;;1.87;;
2858;SDS011;1437;53.250;10.406;2023-04-24T16:07:57;2.93;;;1.60;;
2858;SDS011;1437;53.250;10.406;2023-04-24T16:10:45;6.70;;;3.10;;
2858;SDS011;1437;53.250;10.406;2023-04-24T16:13:17;8.00;;;2.53;;
2858;SDS011;1437;53.250;10.406;2023-04-24T16:15:51;4.10;;;2.83;;
2858;SDS011;1437;53.250;10.406;2023-04-24T16:18:20;5.17;;;3.03;;
2858;SDS011;1437;53.250;10.406;2023-04-24T16:20:49;5.23;;;3.00;;
2858;SDS011;1437;53.250;10.406;2023-04-24T16:23:21;3.60;;;2.30;;
2858;SDS011;1437;53.250;10.406;2023-04-24T16:29:01;3.90;;;2.10;;
2858;SDS011;1437;53.250;10.406;2023-04-24T16:31:34;4.67;;;2.30;;
2858;SDS011;1437;53.250;10.406;2023-04-24T16:34:20;3.07;;;1.60;;
2858;SDS011;1437;53.250;10.406;2023-04-24T16:37:09;2.33;;;1.30;;
2858;SDS011;1437;53.250;10.406;2023-04-24T16:39:40;3.23;;;1.53;;
2858;SDS011;1437;53.250;10.406;2023-04-24T16:42:13;2.87;;;1.70;;
2858;SDS011;1437;53.250;10.406;2023-04-24T16:44:52;3.70;;;1.60;;